createdAt,value
2022-08-09T00:00:32.098Z,101981.31
2022-08-09T00:02:35.759Z,102003.16
2022-08-09T00:04:37.605Z,101991.03
2022-08-09T00:06:40.028Z,101995.38
2022-08-09T00:08:47.159Z,101993.75
2022-08-09T00:10:51.426Z,101995.25
2022-08-09T00:12:53.309Z,101993.75
2022-08-09T00:14:56.895Z,101994.16
2022-08-09T00:16:58.605Z,101995.78
2022-08-09T00:19:01.286Z,101993.31
2022-08-09T00:21:08.590Z,101996.00
2022-08-09T00:23:57.565Z,102001.53
2022-08-09T00:25:33.684Z,102001.53
2022-08-09T00:27:36.094Z,101990.72
2022-08-09T00:30:10.004Z,102000.44
2022-08-09T00:32:01.182Z,101998.19
2022-08-09T00:34:04.262Z,101991.56
2022-08-09T00:36:06.063Z,101991.34
2022-08-09T00:38:09.981Z,101991.88
2022-08-09T00:40:17.387Z,101993.09
2022-08-09T00:44:15.930Z,101988.97
2022-08-09T00:44:46.897Z,101982.56
2022-08-09T00:46:57.818Z,101981.81
2022-08-09T00:49:06.228Z,101990.22
2022-08-09T00:51:11.733Z,101995.00
2022-08-09T00:53:14.545Z,101988.50
2022-08-09T00:56:03.052Z,101995.56
2022-08-09T00:57:40.006Z,101990.91
2022-08-09T00:59:46.007Z,101992.41
2022-08-09T01:01:51.181Z,101991.66
2022-08-09T01:03:59.077Z,101990.47
2022-08-09T01:06:17.569Z,101993.38
2022-08-09T01:08:27.369Z,101988.16
2022-08-09T01:10:37.000Z,101989.78
2022-08-09T01:12:45.770Z,101988.06
2022-08-09T01:14:52.900Z,101981.38
2022-08-09T01:17:01.938Z,101984.38
2022-08-09T01:19:16.656Z,101989.78
2022-08-09T01:21:24.952Z,101979.94
2022-08-09T01:24:02.623Z,101987.59
2022-08-09T01:26:14.225Z,101979.94
2022-08-09T01:28:18.945Z,101976.19
2022-08-09T01:30:28.867Z,101990.22
2022-08-09T01:32:45.435Z,101984.59
2022-08-09T01:34:49.945Z,101987.75
2022-08-09T01:36:56.466Z,101986.13
2022-08-09T01:39:01.108Z,101991.97
2022-08-09T01:41:07.726Z,101994.78
2022-08-09T01:43:10.898Z,101993.69
2022-08-09T01:45:15.085Z,101990.22
2022-08-09T01:47:18.444Z,101991.72
2022-08-09T01:49:24.384Z,102000.19
2022-08-09T01:51:28.063Z,101990.69
2022-08-09T01:53:41.119Z,101982.81
2022-08-09T01:55:44.390Z,101994.47
2022-08-09T01:57:52.880Z,101995.16
2022-08-09T01:59:59.885Z,101989.84
2022-08-09T02:02:03.674Z,101996.97
2022-08-09T02:04:08.594Z,101997.19
2022-08-09T02:06:13.011Z,101986.69
2022-08-09T02:08:38.807Z,101990.91
2022-08-09T02:10:51.094Z,101992.22
2022-08-09T02:12:55.175Z,101990.50
2022-08-09T02:15:00.669Z,101988.56
2022-08-09T02:17:29.492Z,101996.91
2022-08-09T02:19:38.606Z,101987.94
2022-08-09T02:21:44.575Z,101995.34
2022-08-09T02:23:54.599Z,101994.09
2022-08-09T02:25:59.811Z,102000.00
2022-08-09T02:28:07.159Z,102000.34
2022-08-09T02:30:12.230Z,102004.78
2022-08-09T02:32:21.269Z,101991.16
2022-08-09T02:34:40.531Z,101999.25
2022-08-09T02:36:54.189Z,101997.75
2022-08-09T02:38:58.281Z,101987.47
2022-08-09T02:41:10.290Z,101995.59
2022-08-09T02:43:13.056Z,102000.44
2022-08-09T02:45:17.745Z,102008.75
2022-08-09T02:47:23.330Z,102008.00
2022-08-09T02:49:27.258Z,101998.47
2022-08-09T02:51:44.576Z,102004.22
2022-08-09T02:53:59.611Z,102002.50
2022-08-09T02:56:06.030Z,102000.44
2022-08-09T02:58:36.039Z,102006.28
2022-08-09T03:00:31.941Z,102004.34
2022-08-09T03:02:36.792Z,102008.75
2022-08-09T03:04:40.378Z,102013.41
2022-08-09T03:06:44.057Z,102013.94
2022-08-09T03:08:49.306Z,102005.63
2022-08-09T03:10:52.743Z,102000.66
2022-08-09T03:12:55.046Z,102002.38
2022-08-09T03:14:57.593Z,102007.56
2022-08-09T03:17:02.103Z,101997.41
2022-08-09T03:19:14.332Z,102002.91
2022-08-09T03:21:36.563Z,102006.81
2022-08-09T03:23:41.463Z,102010.81
2022-08-09T03:26:05.079Z,102006.50
2022-08-09T03:28:11.377Z,102008.22
2022-08-09T03:30:14.454Z,102013.75
2022-08-09T03:32:36.778Z,102015.47
2022-08-09T03:34:40.160Z,102012.75
2022-08-09T03:36:43.581Z,102022.50
2022-08-09T03:39:00.219Z,102019.78
2022-08-09T03:41:02.896Z,102016.22
2022-08-09T03:43:05.785Z,102018.91
2022-08-09T03:45:08.586Z,102016.63
2022-08-09T03:47:10.382Z,102020.84
2022-08-09T03:49:16.687Z,102023.66
2022-08-09T03:51:57.431Z,102021.28
2022-08-09T03:53:44.676Z,102022.44
2022-08-09T03:55:48.317Z,102024.16
2022-08-09T03:57:57.587Z,102030.34
2022-08-09T04:00:09.240Z,102025.25
2022-08-09T04:02:10.855Z,102024.16
2022-08-09T04:04:14.700Z,102014.09
2022-08-09T04:06:17.015Z,102027.41
2022-08-09T04:08:20.030Z,102028.16
2022-08-09T04:10:30.728Z,102031.31
2022-08-09T04:12:44.694Z,102029.13
2022-08-09T04:14:59.199Z,102032.81
2022-08-09T04:17:03.832Z,102034.53
2022-08-09T04:19:05.362Z,102038.84
2022-08-09T04:21:12.763Z,102037.25
2022-08-09T04:23:16.725Z,102044.28
2022-08-09T04:25:20.356Z,102049.25
2022-08-09T04:27:23.693Z,102047.94
2022-08-09T04:29:25.163Z,102048.59
2022-08-09T04:31:37.767Z,102045.13
2022-08-09T04:33:52.653Z,102051.09
2022-08-09T04:35:58.192Z,102045.16
2022-08-09T04:38:00.153Z,102059.44
2022-08-09T04:40:07.682Z,102053.47
2022-08-09T04:42:11.359Z,102049.56
2022-08-09T04:44:17.368Z,102051.63
2022-08-09T04:46:36.398Z,102053.34
2022-08-09T04:48:40.438Z,102056.81
2022-08-09T04:50:59.019Z,102052.50
2022-08-09T04:53:00.720Z,102064.19
2022-08-09T04:55:02.403Z,102067.84
2022-08-09T04:57:09.416Z,102072.59
2022-08-09T04:59:15.719Z,102067.97
2022-08-09T05:01:18.787Z,102066.13
2022-08-09T05:03:40.660Z,102074.34
2022-08-09T05:05:52.689Z,102070.22
2022-08-09T05:08:04.604Z,102070.66
2022-08-09T05:10:07.207Z,102081.03
2022-08-09T05:12:09.765Z,102076.16
2022-08-09T05:14:15.267Z,102077.13
2022-08-09T05:16:18.176Z,102071.03
2022-08-09T05:18:50.798Z,102073.63
2022-08-09T05:20:41.911Z,102077.31
2022-08-09T05:23:54.696Z,102078.75
2022-08-09T05:25:08.400Z,102079.50
2022-08-09T05:27:10.610Z,102091.88
2022-08-09T05:29:21.924Z,102079.66
2022-08-09T05:31:44.007Z,102085.50
2022-08-09T05:33:45.910Z,102088.31
2022-08-09T05:35:50.850Z,102086.81
2022-08-09T05:37:52.534Z,102091.75
2022-08-09T05:39:54.234Z,102082.19
2022-08-09T05:41:56.229Z,102096.78
2022-08-09T05:44:03.849Z,102098.09
2022-08-09T05:46:08.346Z,102097.84
2022-08-09T05:48:12.591Z,102087.38
2022-08-09T05:50:25.547Z,102094.75
2022-08-09T05:52:38.615Z,102100.16
2022-08-09T05:54:40.589Z,102096.47
2022-08-09T05:56:54.423Z,102098.22
2022-08-09T05:58:58.510Z,102100.34
2022-08-09T06:01:00.395Z,102099.09
2022-08-09T06:03:10.779Z,102103.75
2022-08-09T06:05:12.662Z,102108.97
2022-08-09T06:07:21.490Z,102102.03
2022-08-09T06:09:54.562Z,102100.19
2022-08-09T06:11:57.690Z,102100.97
2022-08-09T06:13:59.531Z,102102.75
2022-08-09T06:16:01.680Z,102104.59
2022-08-09T06:18:07.921Z,102104.59
2022-08-09T06:20:12.849Z,102107.88
2022-08-09T06:22:23.522Z,102116.19
2022-08-09T06:24:30.580Z,102116.53
2022-08-09T06:26:33.006Z,102120.75
2022-08-09T06:28:34.957Z,102118.03
2022-08-09T06:30:38.721Z,102124.06
2022-08-09T06:32:59.458Z,102123.31
2022-08-09T06:35:06.383Z,102129.38
2022-08-09T06:37:10.223Z,102127.63
2022-08-09T06:39:11.984Z,102131.03
2022-08-09T06:41:18.811Z,102132.53
2022-08-09T06:43:21.829Z,102139.44
2022-08-09T06:46:06.708Z,102129.63
2022-08-09T06:47:45.431Z,102140.19
2022-08-09T06:50:14.968Z,102142.81
2022-08-09T06:52:10.028Z,102132.78
2022-08-09T06:54:14.924Z,102140.94
2022-08-09T06:56:16.616Z,102131.22
2022-08-09T06:58:40.577Z,102131.94
2022-08-09T07:00:51.172Z,102142.50
2022-08-09T07:02:59.597Z,102134.66
2022-08-09T07:05:02.281Z,102136.13
2022-08-09T07:07:04.795Z,102139.56
2022-08-09T07:09:08.072Z,102143.56
2022-08-09T07:11:34.189Z,102141.94
2022-08-09T07:14:04.283Z,102149.34
2022-08-09T07:16:42.831Z,102147.63
2022-08-09T07:18:29.765Z,102144.19
2022-08-09T07:20:33.093Z,102149.09
2022-08-09T07:22:47.416Z,102153.47
2022-08-09T07:24:55.580Z,102152.38
2022-08-09T07:26:57.411Z,102149.19
2022-08-09T07:29:08.224Z,102164.72
2022-08-09T07:31:10.995Z,102154.53
2022-08-09T07:33:16.475Z,102147.53
2022-08-09T07:35:18.914Z,102154.94
2022-08-09T07:37:20.705Z,102161.53
2022-08-09T07:39:40.256Z,102158.53
2022-08-09T07:41:44.987Z,102164.78
2022-08-09T07:43:50.051Z,102154.56
2022-08-09T07:46:02.126Z,102163.59
2022-08-09T07:48:05.497Z,102162.03
2022-08-09T07:50:09.294Z,102154.59
2022-08-09T07:52:17.904Z,102160.75
2022-08-09T07:54:28.006Z,102155.91
2022-08-09T07:56:32.060Z,102158.34
2022-08-09T07:58:35.059Z,102164.03
2022-08-09T08:00:36.806Z,102157.13
2022-08-09T08:02:57.766Z,102168.50
2022-08-09T08:04:59.741Z,102171.66
2022-08-09T08:07:27.194Z,102158.00
2022-08-09T08:09:35.533Z,102157.19
2022-08-09T08:12:24.146Z,102157.13
2022-08-09T08:14:07.411Z,102156.25
2022-08-09T08:16:29.549Z,102156.25
2022-08-09T08:18:31.714Z,102159.69
2022-08-09T08:20:33.683Z,102156.75
2022-08-09T08:22:35.297Z,102157.78
2022-08-09T08:24:40.744Z,102165.16
2022-08-09T08:26:56.133Z,102159.31
2022-08-09T08:28:58.228Z,102162.59
2022-08-09T08:31:10.642Z,102163.03
2022-08-09T08:33:23.012Z,102153.69
2022-08-09T08:35:28.213Z,102156.75
2022-08-09T08:37:41.412Z,102158.69
2022-08-09T08:40:00.483Z,102167.31
2022-08-09T08:42:02.516Z,102159.81
2022-08-09T08:44:04.546Z,102157.50
2022-08-09T08:46:33.112Z,102152.25
2022-08-09T08:48:34.289Z,102157.50
2022-08-09T08:50:37.029Z,102165.75
2022-08-09T08:52:59.419Z,102170.47
2022-08-09T08:55:03.947Z,102165.97
2022-08-09T08:57:11.643Z,102161.50
2022-08-09T08:59:19.473Z,102162.97
2022-08-09T09:01:25.031Z,102162.16
2022-08-09T09:03:38.260Z,102158.16
2022-08-09T09:06:03.325Z,102164.19
2022-08-09T09:08:03.326Z,102154.72
2022-08-09T09:10:09.128Z,102157.28
2022-08-09T09:12:16.472Z,102156.97
2022-08-09T09:14:23.741Z,102164.47
2022-08-09T09:16:30.836Z,102163.31
2022-08-09T09:18:33.437Z,102163.31
2022-08-09T09:20:35.397Z,102164.16
2022-08-09T09:22:57.772Z,102161.00
2022-08-09T09:26:01.025Z,102172.19
2022-08-09T09:28:06.625Z,102165.03
2022-08-09T09:32:15.935Z,102171.31
2022-08-09T09:34:18.162Z,102155.56
2022-08-09T09:36:21.265Z,102149.06
2022-08-09T09:38:38.687Z,102143.63
2022-08-09T09:40:46.187Z,102151.97
2022-08-09T09:42:56.088Z,102145.72
2022-08-09T09:44:58.674Z,102152.00
2022-08-09T09:47:07.882Z,102152.13
2022-08-09T09:49:18.616Z,102155.31
2022-08-09T09:51:38.134Z,102152.19
2022-08-09T09:53:57.411Z,102145.56
2022-08-09T09:56:05.512Z,102150.19
2022-08-09T09:58:16.891Z,102146.19
2022-08-09T10:00:22.804Z,102141.19
2022-08-09T10:02:28.288Z,102148.97
2022-08-09T10:04:31.848Z,102145.28
2022-08-09T10:06:43.017Z,102149.75
2022-08-09T10:08:57.270Z,102140.19
2022-08-09T10:10:59.282Z,102145.44
2022-08-09T10:13:01.055Z,102141.72
2022-08-09T10:15:10.717Z,102139.56
2022-08-09T10:17:39.637Z,102131.16
2022-08-09T10:19:43.774Z,102133.16
2022-08-09T10:21:48.924Z,102130.03
2022-08-09T10:23:52.224Z,102133.16
2022-08-09T10:26:07.839Z,102112.88
2022-08-09T10:28:12.755Z,102122.53
2022-08-09T10:32:42.778Z,102131.03
2022-08-09T10:34:46.372Z,102130.38
2022-08-09T10:36:48.799Z,102124.22
2022-08-09T10:38:56.707Z,102125.09
2022-08-09T10:41:01.918Z,102127.69
2022-08-09T10:43:05.270Z,102130.19
2022-08-09T10:45:16.740Z,102133.28
2022-08-09T10:48:16.812Z,102126.59
2022-08-09T10:50:21.094Z,102124.84
2022-08-09T10:52:46.038Z,102124.84
2022-08-09T10:54:47.574Z,102120.41
2022-08-09T10:57:07.959Z,102111.94
2022-08-09T10:59:31.174Z,102121.31
2022-08-09T11:03:16.430Z,102114.19
2022-08-09T11:04:28.559Z,102121.78
2022-08-09T11:06:35.091Z,102108.91
2022-08-09T11:08:47.427Z,102106.19
2022-08-09T11:10:56.139Z,102103.34
2022-08-09T11:13:13.885Z,102100.16
2022-08-09T11:15:38.375Z,102099.91
2022-08-09T11:18:03.009Z,102098.63
2022-08-09T11:20:10.754Z,102099.06
2022-08-09T11:22:59.522Z,102100.03
2022-08-09T11:25:04.946Z,102093.03
2022-08-09T11:28:04.706Z,102104.13
2022-08-09T11:30:05.929Z,102095.25
2022-08-09T11:32:45.682Z,102106.19
2022-08-09T11:34:51.438Z,102107.66
2022-08-09T11:36:55.752Z,102103.19
2022-08-09T11:39:04.170Z,102106.31
2022-08-09T11:41:26.321Z,102109.75
2022-08-09T11:43:42.744Z,102102.69
2022-08-09T11:45:54.756Z,102104.41
2022-08-09T11:48:06.586Z,102109.19
2022-08-09T11:50:53.205Z,102097.03
2022-08-09T11:53:59.857Z,102104.66
2022-08-09T11:56:02.825Z,102105.38
2022-08-09T11:58:32.313Z,102102.34
2022-08-09T12:00:34.757Z,102101.00
2022-08-09T12:02:40.825Z,102091.03
2022-08-09T12:04:43.122Z,102098.44
2022-08-09T12:06:55.522Z,102081.03
2022-08-09T12:08:57.683Z,102095.41
2022-08-09T12:11:04.113Z,102084.28
2022-08-09T12:14:09.818Z,102092.59
2022-08-09T12:15:52.593Z,102077.91
2022-08-09T12:17:54.977Z,102082.00
2022-08-09T12:19:59.895Z,102083.69
2022-08-09T12:22:03.814Z,102086.38
2022-08-09T12:24:09.292Z,102089.69
2022-08-09T12:26:25.824Z,102089.97
2022-08-09T12:29:09.807Z,102092.03
2022-08-09T12:30:50.129Z,102090.53
2022-08-09T12:33:01.429Z,102085.06
2022-08-09T12:35:05.189Z,102082.72
2022-08-09T12:37:23.699Z,102088.66
2022-08-09T12:39:30.842Z,102082.88
2022-08-09T12:41:40.766Z,102078.41
2022-08-09T12:44:05.584Z,102074.59
2022-08-09T12:46:04.372Z,102076.31
2022-08-09T12:48:20.213Z,102075.56
2022-08-09T12:50:31.509Z,102065.66
2022-08-09T12:52:42.822Z,102070.97
2022-08-09T12:56:11.157Z,102065.50
2022-08-09T12:57:38.711Z,102057.97
2022-08-09T13:00:03.340Z,102057.63
2022-08-09T13:02:04.451Z,102054.38
2022-08-09T13:04:16.674Z,102056.75
2022-08-09T13:06:34.205Z,102046.16
2022-08-09T13:08:40.111Z,102043.34
2022-08-09T13:10:52.333Z,102045.59
2022-08-09T13:13:08.833Z,102040.66
2022-08-09T13:15:12.131Z,102037.94
2022-08-09T13:17:16.092Z,102053.25
2022-08-09T13:19:25.782Z,102050.88
2022-08-09T13:23:00.551Z,102043.94
2022-08-09T13:24:44.599Z,102045.75
2022-08-09T13:26:36.539Z,102051.06
2022-08-09T13:28:40.468Z,102044.06
2022-08-09T13:30:50.980Z,102043.88
2022-08-09T13:33:04.170Z,102057.34
2022-08-09T13:35:06.524Z,102048.03
2022-08-09T13:37:13.635Z,102055.06
2022-08-09T13:41:19.093Z,102045.31
2022-08-09T13:41:59.139Z,102049.69
2022-08-09T13:44:05.398Z,102050.25
2022-08-09T13:46:42.935Z,102055.38
2022-08-09T13:48:30.115Z,102048.97
2022-08-09T13:50:31.880Z,102048.53
2022-08-09T13:52:33.712Z,102050.41
2022-08-09T13:54:35.468Z,102052.09
2022-08-09T13:56:43.323Z,102047.88
2022-08-09T13:58:48.654Z,102050.47
2022-08-09T14:00:53.109Z,102055.50
2022-08-09T14:03:03.415Z,102040.44
2022-08-09T14:05:58.554Z,102042.78
2022-08-09T14:07:42.042Z,102041.13
2022-08-09T14:09:43.943Z,102036.75
2022-08-09T14:11:47.865Z,102031.69
2022-08-09T14:14:22.539Z,102026.59
2022-08-09T14:16:14.848Z,102026.78
2022-08-09T14:18:20.735Z,102017.31
2022-08-09T14:20:31.858Z,102030.53
2022-08-09T14:22:34.073Z,102022.47
2022-08-09T14:24:35.799Z,102025.25
2022-08-09T14:26:41.755Z,102026.09
2022-08-09T14:28:46.795Z,102018.75
2022-08-09T14:30:48.844Z,102015.19
2022-08-09T14:32:52.844Z,102017.06
2022-08-09T14:34:56.757Z,102025.81
2022-08-09T14:36:58.725Z,102023.06
2022-08-09T14:39:00.769Z,102025.44
2022-08-09T14:41:34.402Z,102025.09
2022-08-09T14:43:27.856Z,102024.06
2022-08-09T14:46:55.819Z,102020.31
2022-08-09T14:48:12.310Z,102023.38
2022-08-09T14:50:17.386Z,102024.41
2022-08-09T14:52:19.142Z,102025.22
2022-08-09T14:54:22.298Z,102030.22
2022-08-09T14:56:26.984Z,102020.28
2022-08-09T14:58:28.619Z,102031.94
2022-08-09T15:00:31.128Z,102021.34
2022-08-09T15:02:32.869Z,102025.09
2022-08-09T15:04:36.322Z,102021.97
2022-08-09T15:06:37.839Z,102017.19
2022-08-09T15:08:39.597Z,102020.03
2022-08-09T15:10:43.054Z,102026.38
2022-08-09T15:13:04.729Z,102017.84
2022-08-09T15:15:08.567Z,102028.47
2022-08-09T15:17:10.489Z,102017.69
2022-08-09T15:19:18.007Z,102021.28
2022-08-09T15:21:56.427Z,102012.03
2022-08-09T15:24:00.954Z,102019.59
2022-08-09T15:26:04.923Z,102020.44
2022-08-09T15:28:26.415Z,102019.88
2022-08-09T15:30:57.289Z,102018.41
2022-08-09T15:32:51.944Z,102015.44
2022-08-09T15:34:54.898Z,102022.41
2022-08-09T15:36:59.400Z,102018.22
2022-08-09T15:39:01.015Z,102020.34
2022-08-09T15:41:09.594Z,102008.69
2022-08-09T15:43:13.173Z,102016.50
2022-08-09T15:45:21.829Z,102003.84
2022-08-09T15:47:52.906Z,102003.28
2022-08-09T15:50:03.606Z,102010.72
2022-08-09T15:52:07.494Z,101996.88
2022-08-09T15:54:20.988Z,102005.25
2022-08-09T15:56:31.227Z,102004.22
2022-08-09T15:58:32.918Z,102004.91
2022-08-09T16:00:34.604Z,102016.50
2022-08-09T16:02:36.864Z,102011.97
2022-08-09T16:04:38.478Z,102006.88
2022-08-09T16:06:40.039Z,102002.22
2022-08-09T16:08:49.845Z,101998.69
2022-08-09T16:10:56.577Z,102003.97
2022-08-09T16:12:58.485Z,102002.94
2022-08-09T16:15:01.505Z,102002.22
2022-08-09T16:17:03.226Z,102001.72
2022-08-09T16:19:05.131Z,101996.72
2022-08-09T16:21:06.683Z,102003.91
2022-08-09T16:23:08.231Z,101992.63
2022-08-09T16:25:14.165Z,101996.59
2022-08-09T16:27:17.367Z,102002.88
2022-08-09T16:29:20.169Z,102001.66
2022-08-09T16:32:11.206Z,101996.84
2022-08-09T16:33:43.508Z,101993.19
2022-08-09T16:35:55.785Z,102005.13
2022-08-09T16:38:00.351Z,102001.47
2022-08-09T16:40:04.395Z,101994.19
2022-08-09T16:42:08.708Z,101998.38
2022-08-09T16:44:16.685Z,101999.00
2022-08-09T16:46:18.255Z,101996.84
2022-08-09T16:48:42.616Z,101993.81
2022-08-09T16:50:59.149Z,101998.91
2022-08-09T16:53:01.909Z,101994.88
2022-08-09T16:55:04.093Z,101997.59
2022-08-09T16:57:11.031Z,102007.59
2022-08-09T16:59:12.546Z,101990.72
2022-08-09T17:01:14.147Z,101999.25
2022-08-09T17:03:22.056Z,102001.81
2022-08-09T17:05:24.990Z,102003.00
2022-08-09T17:08:47.088Z,102000.53
2022-08-09T17:10:10.362Z,102006.19
2022-08-09T17:12:14.297Z,102004.88
2022-08-09T17:14:25.624Z,102012.25
2022-08-09T17:16:30.036Z,102007.09
2022-08-09T17:18:39.704Z,102017.69
2022-08-09T17:20:52.506Z,102007.78
2022-08-09T17:22:54.676Z,102009.94
2022-08-09T17:25:03.523Z,101996.28
2022-08-09T17:27:15.021Z,102018.00
2022-08-09T17:29:20.150Z,102023.25
2022-08-09T17:31:22.064Z,102021.41
2022-08-09T17:33:24.024Z,102022.00
2022-08-09T17:35:25.665Z,102026.94
2022-08-09T17:37:27.257Z,102028.56
2022-08-09T17:39:52.855Z,102033.59
2022-08-09T17:41:53.228Z,102033.88
2022-08-09T17:44:42.010Z,102036.63
2022-08-09T17:46:17.572Z,102039.19
2022-08-09T17:48:19.334Z,102033.47
2022-08-09T17:50:36.986Z,102040.50
2022-08-09T17:52:39.075Z,102034.63
2022-08-09T17:54:40.785Z,102039.38
2022-08-09T17:56:43.432Z,102040.53
2022-08-09T17:58:46.915Z,102044.97
2022-08-09T18:00:49.059Z,102049.28
2022-08-09T18:02:58.220Z,102039.66
2022-08-09T18:05:00.356Z,102046.69
2022-08-09T18:07:04.464Z,102051.84
2022-08-09T18:09:07.016Z,102050.41
2022-08-09T18:11:08.639Z,102054.28
2022-08-09T18:13:53.653Z,102037.22
2022-08-09T18:16:04.915Z,102046.53
2022-08-09T18:18:07.869Z,102044.97
2022-08-09T18:20:56.929Z,102051.56
2022-08-09T18:22:34.070Z,102053.38
2022-08-09T18:24:35.951Z,102060.41
2022-08-09T18:26:38.930Z,102062.13
2022-08-09T18:30:41.262Z,102055.22
2022-08-09T18:31:10.317Z,102062.25
2022-08-09T18:33:13.596Z,102064.25
2022-08-09T18:35:17.003Z,102056.78
2022-08-09T18:37:48.199Z,102057.66
2022-08-09T18:39:41.959Z,102074.28
2022-08-09T18:41:52.952Z,102063.41
2022-08-09T18:43:55.271Z,102069.41
2022-08-09T18:46:50.072Z,102078.28
2022-08-09T18:48:20.319Z,102076.13
2022-08-09T18:50:22.548Z,102077.66
2022-08-09T18:52:34.729Z,102078.22
2022-08-09T18:54:37.241Z,102079.38
2022-08-09T18:56:38.942Z,102085.09
2022-08-09T18:58:42.586Z,102081.81
2022-08-09T19:00:50.789Z,102079.38
2022-08-09T19:02:54.097Z,102079.94
2022-08-09T19:05:04.075Z,102085.94
2022-08-09T19:07:16.777Z,102095.94
2022-08-09T19:09:34.084Z,102099.09
2022-08-09T19:11:40.451Z,102100.22
2022-08-09T19:13:51.545Z,102103.25
2022-08-09T19:15:55.841Z,102100.50
2022-08-09T19:17:59.043Z,102113.91
2022-08-09T19:20:02.344Z,102102.25
2022-08-09T19:22:06.854Z,102115.84
2022-08-09T19:24:37.579Z,102124.75
2022-08-09T19:26:34.798Z,102118.09
2022-08-09T19:28:37.930Z,102121.53
2022-08-09T19:30:40.271Z,102122.22
2022-08-09T19:32:46.310Z,102118.91
2022-08-09T19:34:54.648Z,102117.00
2022-08-09T19:37:00.657Z,102111.88
2022-08-09T19:39:03.565Z,102126.88
2022-08-09T19:41:07.337Z,102123.16
2022-08-09T19:43:10.257Z,102122.16
2022-08-09T19:45:18.641Z,102125.38
2022-08-09T19:47:23.465Z,102123.94
2022-08-09T19:50:07.564Z,102127.91
2022-08-09T19:51:55.231Z,102131.50
2022-08-09T19:53:59.277Z,102123.94
2022-08-09T19:56:02.895Z,102133.88
2022-08-09T19:58:16.401Z,102136.19
2022-08-09T20:00:18.867Z,102135.88
2022-08-09T20:04:09.844Z,102127.25
2022-08-09T20:04:53.274Z,102132.34
2022-08-09T20:06:57.291Z,102136.31
2022-08-09T20:09:00.267Z,102130.69
2022-08-09T20:11:04.384Z,102124.00
2022-08-09T20:13:06.948Z,102135.19
2022-08-09T20:15:14.036Z,102139.63
2022-08-09T20:17:48.543Z,102143.53
2022-08-09T20:19:53.856Z,102146.38
2022-08-09T20:22:00.365Z,102144.94
2022-08-09T20:24:03.926Z,102144.78
2022-08-09T20:26:06.974Z,102151.09
2022-08-09T20:28:08.612Z,102145.91
2022-08-09T20:30:14.653Z,102149.53
2022-08-09T20:32:30.671Z,102153.59
2022-08-09T20:34:35.533Z,102152.59
2022-08-09T20:36:39.496Z,102147.56
2022-08-09T20:39:29.192Z,102145.22
2022-08-09T20:41:06.747Z,102145.47
2022-08-09T20:43:19.098Z,102150.66
2022-08-09T20:45:58.482Z,102148.25
2022-08-09T20:47:48.636Z,102141.56
2022-08-09T20:49:50.423Z,102138.22
2022-08-09T20:51:52.114Z,102141.66
2022-08-09T20:53:55.903Z,102144.75
2022-08-09T20:56:00.725Z,102147.59
2022-08-09T20:58:07.857Z,102148.22
2022-08-09T21:00:31.128Z,102156.75
2022-08-09T21:02:34.063Z,102156.13
2022-08-09T21:05:51.069Z,102160.31
2022-08-09T21:06:57.371Z,102156.63
2022-08-09T21:08:58.904Z,102157.22
2022-08-09T21:11:00.426Z,102155.88
2022-08-09T21:13:12.385Z,102157.38
2022-08-09T21:15:17.577Z,102164.75
2022-08-09T21:18:20.878Z,102161.66
2022-08-09T21:20:18.925Z,102154.03
2022-08-09T21:22:37.748Z,102159.31
2022-08-09T21:24:33.559Z,102180.03
2022-08-09T21:26:35.450Z,102170.91
2022-08-09T21:28:38.434Z,102180.28
2022-08-09T21:30:40.675Z,102174.81
2022-08-09T21:32:42.530Z,102181.44
2022-08-09T21:34:49.160Z,102176.31
2022-08-09T21:36:55.658Z,102180.47
2022-08-09T21:38:59.321Z,102173.09
2022-08-09T21:41:01.335Z,102161.00
2022-08-09T21:43:04.025Z,102176.91
2022-08-09T21:45:10.173Z,102166.81
2022-08-09T21:47:19.132Z,102170.25
2022-08-09T21:49:20.730Z,102170.13
2022-08-09T21:51:25.444Z,102174.56
2022-08-09T21:53:40.113Z,102177.50
2022-08-09T21:55:46.523Z,102172.06
2022-08-09T21:57:59.451Z,102179.94
2022-08-09T22:00:01.850Z,102171.81
2022-08-09T22:02:04.941Z,102176.88
2022-08-09T22:04:06.540Z,102179.44
2022-08-09T22:06:08.217Z,102169.03
2022-08-09T22:08:13.466Z,102184.00
2022-08-09T22:10:22.148Z,102172.69
2022-08-09T22:12:30.845Z,102184.53
2022-08-09T22:14:33.012Z,102178.88
2022-08-09T22:16:37.404Z,102177.84
2022-08-09T22:18:44.104Z,102180.47
2022-08-09T22:20:55.300Z,102178.88
2022-08-09T22:22:57.816Z,102184.31
2022-08-09T22:26:08.691Z,102183.56
2022-08-09T22:27:21.050Z,102177.13
2022-08-09T22:29:28.785Z,102184.75
2022-08-09T22:31:36.437Z,102168.50
2022-08-09T22:33:49.201Z,102179.56
2022-08-09T22:36:00.853Z,102176.13
2022-08-09T22:38:07.658Z,102173.09
2022-08-09T22:40:20.270Z,102175.81
2022-08-09T22:42:23.597Z,102175.06
2022-08-09T22:44:25.321Z,102179.22
2022-08-09T22:48:11.354Z,102184.88
2022-08-09T22:48:55.856Z,102185.56
2022-08-09T22:51:10.290Z,102177.56
2022-08-09T22:53:12.533Z,102179.41
2022-08-09T22:55:21.846Z,102176.41
2022-08-09T22:57:24.445Z,102185.78
2022-08-09T22:59:55.303Z,102180.84
2022-08-09T23:01:58.953Z,102185.97
2022-08-09T23:04:04.419Z,102180.44
2022-08-09T23:06:10.010Z,102180.91
2022-08-09T23:08:22.700Z,102179.25
2022-08-09T23:10:31.253Z,102188.56
2022-08-09T23:12:32.860Z,102187.19
2022-08-09T23:14:37.633Z,102189.78
2022-08-09T23:16:44.657Z,102183.38
2022-08-09T23:18:46.191Z,102181.53
2022-08-09T23:20:47.752Z,102187.09
2022-08-09T23:22:50.646Z,102183.53
2022-08-09T23:24:52.222Z,102183.34
2022-08-09T23:26:53.777Z,102195.25
2022-08-09T23:28:55.326Z,102196.31
2022-08-09T23:30:56.874Z,102194.59
2022-08-09T23:32:58.411Z,102182.91
2022-08-09T23:34:59.999Z,102195.34
2022-08-09T23:37:01.552Z,102193.97
2022-08-09T23:39:05.746Z,102192.41
2022-08-09T23:41:07.366Z,102195.91
2022-08-09T23:43:09.025Z,102186.59
2022-08-09T23:45:11.147Z,102192.22
2022-08-09T23:47:32.683Z,102189.41
2022-08-09T23:49:34.188Z,102192.41
2022-08-09T23:51:35.720Z,102192.84
2022-08-09T23:53:38.389Z,102189.50
2022-08-09T23:55:46.215Z,102195.66
2022-08-09T23:58:07.199Z,102187.97
